sensor_id;sensor_type;location;lat;lon;timestamp;P1;durP1;ratioP1;P2;durP2;ratioP2
18200;SDS011;9226;47.858;9.594;2023-06-14T00:01:25;5.03;;;3.20;;
18200;SDS011;9226;47.858;9.594;2023-06-14T00:03:52;4.87;;;3.50;;
18200;SDS011;9226;47.858;9.594;2023-06-14T00:06:17;7.57;;;4.10;;
18200;SDS011;9226;47.858;9.594;2023-06-14T00:08:43;5.30;;;3.53;;
18200;SDS011;9226;47.858;9.594;2023-06-14T00:11:08;7.63;;;3.70;;
18200;SDS011;9226;47.858;9.594;2023-06-14T00:13:34;9.53;;;4.00;;
18200;SDS011;9226;47.858;9.594;2023-06-14T00:15:59;5.10;;;3.73;;
18200;SDS011;9226;47.858;9.594;2023-06-14T00:18:25;6.57;;;3.73;;
18200;SDS011;9226;47.858;9.594;2023-06-14T00:20:54;6.30;;;3.57;;
18200;SDS011;9226;47.858;9.594;2023-06-14T00:23:20;8.57;;;3.60;;
18200;SDS011;9226;47.858;9.594;2023-06-14T00:25:46;6.27;;;3.73;;
18200;SDS011;9226;47.858;9.594;2023-06-14T00:28:11;8.37;;;3.70;;
18200;SDS011;9226;47.858;9.594;2023-06-14T00:30:37;6.27;;;3.87;;
18200;SDS011;9226;47.858;9.594;2023-06-14T00:33:02;6.37;;;3.80;;
18200;SDS011;9226;47.858;9.594;2023-06-14T00:35:28;5.13;;;3.33;;
18200;SDS011;9226;47.858;9.594;2023-06-14T00:37:53;7.63;;;3.80;;
18200;SDS011;9226;47.858;9.594;2023-06-14T00:40:20;6.67;;;3.87;;
18200;SDS011;9226;47.858;9.594;2023-06-14T00:42:46;11.57;;;4.00;;
18200;SDS011;9226;47.858;9.594;2023-06-14T00:45:12;7.03;;;4.27;;
18200;SDS011;9226;47.858;9.594;2023-06-14T00:47:37;7.30;;;3.73;;
18200;SDS011;9226;47.858;9.594;2023-06-14T00:50:06;7.77;;;3.63;;
18200;SDS011;9226;47.858;9.594;2023-06-14T00:52:32;7.50;;;3.77;;
18200;SDS011;9226;47.858;9.594;2023-06-14T00:54:58;10.37;;;3.83;;
18200;SDS011;9226;47.858;9.594;2023-06-14T00:57:23;5.47;;;3.63;;
18200;SDS011;9226;47.858;9.594;2023-06-14T00:59:49;8.43;;;4.13;;
18200;SDS011;9226;47.858;9.594;2023-06-14T01:02:15;5.43;;;3.90;;
18200;SDS011;9226;47.858;9.594;2023-06-14T01:04:43;6.47;;;3.60;;
18200;SDS011;9226;47.858;9.594;2023-06-14T01:15:15;6.70;;;3.93;;
18200;SDS011;9226;47.858;9.594;2023-06-14T01:17:42;7.27;;;3.63;;
18200;SDS011;9226;47.858;9.594;2023-06-14T01:20:13;7.77;;;4.10;;
18200;SDS011;9226;47.858;9.594;2023-06-14T01:22:52;9.40;;;3.97;;
18200;SDS011;9226;47.858;9.594;2023-06-14T01:25:19;6.33;;;3.87;;
18200;SDS011;9226;47.858;9.594;2023-06-14T01:27:47;6.60;;;4.20;;
18200;SDS011;9226;47.858;9.594;2023-06-14T01:30:18;7.40;;;3.60;;
18200;SDS011;9226;47.858;9.594;2023-06-14T01:32:46;6.20;;;3.80;;
18200;SDS011;9226;47.858;9.594;2023-06-14T01:35:12;9.37;;;3.70;;
18200;SDS011;9226;47.858;9.594;2023-06-14T01:37:38;6.67;;;3.60;;
18200;SDS011;9226;47.858;9.594;2023-06-14T01:40:06;9.07;;;4.00;;
18200;SDS011;9226;47.858;9.594;2023-06-14T01:42:35;11.67;;;3.83;;
18200;SDS011;9226;47.858;9.594;2023-06-14T01:45:03;6.13;;;3.73;;
18200;SDS011;9226;47.858;9.594;2023-06-14T01:47:30;6.13;;;3.93;;
18200;SDS011;9226;47.858;9.594;2023-06-14T01:49:57;5.53;;;3.43;;
18200;SDS011;9226;47.858;9.594;2023-06-14T01:52:22;7.73;;;3.90;;
18200;SDS011;9226;47.858;9.594;2023-06-14T01:54:49;6.63;;;4.17;;
18200;SDS011;9226;47.858;9.594;2023-06-14T01:57:17;8.07;;;4.20;;
18200;SDS011;9226;47.858;9.594;2023-06-14T01:59:43;7.17;;;3.70;;
18200;SDS011;9226;47.858;9.594;2023-06-14T02:02:13;7.70;;;3.80;;
18200;SDS011;9226;47.858;9.594;2023-06-14T02:04:38;7.93;;;3.70;;
18200;SDS011;9226;47.858;9.594;2023-06-14T02:07:04;5.27;;;3.67;;
18200;SDS011;9226;47.858;9.594;2023-06-14T02:09:29;7.87;;;3.57;;
18200;SDS011;9226;47.858;9.594;2023-06-14T02:11:55;7.17;;;3.77;;
18200;SDS011;9226;47.858;9.594;2023-06-14T02:14:20;5.77;;;3.67;;
18200;SDS011;9226;47.858;9.594;2023-06-14T02:16:46;7.77;;;3.77;;
18200;SDS011;9226;47.858;9.594;2023-06-14T02:19:16;7.70;;;3.87;;
18200;SDS011;9226;47.858;9.594;2023-06-14T02:21:43;4.70;;;3.13;;
18200;SDS011;9226;47.858;9.594;2023-06-14T02:24:08;6.40;;;4.37;;
18200;SDS011;9226;47.858;9.594;2023-06-14T02:26:34;8.20;;;3.73;;
18200;SDS011;9226;47.858;9.594;2023-06-14T02:29:00;7.57;;;4.37;;
18200;SDS011;9226;47.858;9.594;2023-06-14T02:31:26;8.73;;;4.17;;
18200;SDS011;9226;47.858;9.594;2023-06-14T02:33:52;7.20;;;3.87;;
18200;SDS011;9226;47.858;9.594;2023-06-14T02:36:20;8.83;;;4.30;;
18200;SDS011;9226;47.858;9.594;2023-06-14T02:38:45;10.33;;;4.30;;
18200;SDS011;9226;47.858;9.594;2023-06-14T02:41:11;7.67;;;4.07;;
18200;SDS011;9226;47.858;9.594;2023-06-14T02:43:37;10.27;;;4.03;;
18200;SDS011;9226;47.858;9.594;2023-06-14T02:46:03;6.57;;;4.07;;
18200;SDS011;9226;47.858;9.594;2023-06-14T02:48:28;6.87;;;3.97;;
18200;SDS011;9226;47.858;9.594;2023-06-14T02:50:54;6.30;;;4.17;;
18200;SDS011;9226;47.858;9.594;2023-06-14T02:53:21;7.50;;;3.93;;
18200;SDS011;9226;47.858;9.594;2023-06-14T02:55:46;6.17;;;4.00;;
18200;SDS011;9226;47.858;9.594;2023-06-14T02:58:13;7.50;;;4.17;;
18200;SDS011;9226;47.858;9.594;2023-06-14T03:00:39;6.63;;;3.50;;
18200;SDS011;9226;47.858;9.594;2023-06-14T03:03:06;9.23;;;4.90;;
18200;SDS011;9226;47.858;9.594;2023-06-14T03:05:38;7.30;;;4.30;;
18200;SDS011;9226;47.858;9.594;2023-06-14T03:08:11;6.97;;;4.00;;
18200;SDS011;9226;47.858;9.594;2023-06-14T03:10:42;7.13;;;3.93;;
18200;SDS011;9226;47.858;9.594;2023-06-14T03:13:08;9.63;;;4.10;;
18200;SDS011;9226;47.858;9.594;2023-06-14T03:15:33;8.07;;;4.00;;
18200;SDS011;9226;47.858;9.594;2023-06-14T03:17:59;6.03;;;3.93;;
18200;SDS011;9226;47.858;9.594;2023-06-14T03:20:24;6.93;;;4.07;;
18200;SDS011;9226;47.858;9.594;2023-06-14T03:22:55;8.27;;;4.63;;
18200;SDS011;9226;47.858;9.594;2023-06-14T03:25:20;8.70;;;4.17;;
18200;SDS011;9226;47.858;9.594;2023-06-14T03:27:47;10.67;;;4.00;;
18200;SDS011;9226;47.858;9.594;2023-06-14T03:30:12;5.67;;;4.00;;
18200;SDS011;9226;47.858;9.594;2023-06-14T03:32:38;8.17;;;4.10;;
18200;SDS011;9226;47.858;9.594;2023-06-14T03:35:04;8.57;;;4.33;;
18200;SDS011;9226;47.858;9.594;2023-06-14T03:37:30;8.73;;;4.17;;
18200;SDS011;9226;47.858;9.594;2023-06-14T03:39:55;9.47;;;4.00;;
18200;SDS011;9226;47.858;9.594;2023-06-14T03:42:20;6.77;;;4.20;;
18200;SDS011;9226;47.858;9.594;2023-06-14T03:44:46;11.60;;;4.23;;
18200;SDS011;9226;47.858;9.594;2023-06-14T03:47:11;12.23;;;4.40;;
18200;SDS011;9226;47.858;9.594;2023-06-14T03:49:36;11.97;;;4.50;;
18200;SDS011;9226;47.858;9.594;2023-06-14T03:52:02;8.07;;;4.10;;
18200;SDS011;9226;47.858;9.594;2023-06-14T03:54:28;8.33;;;4.00;;
18200;SDS011;9226;47.858;9.594;2023-06-14T03:56:54;9.43;;;4.73;;
18200;SDS011;9226;47.858;9.594;2023-06-14T03:59:21;12.60;;;5.13;;
18200;SDS011;9226;47.858;9.594;2023-06-14T04:01:47;9.47;;;4.73;;
18200;SDS011;9226;47.858;9.594;2023-06-14T04:04:13;12.20;;;4.77;;
18200;SDS011;9226;47.858;9.594;2023-06-14T04:06:41;11.57;;;3.77;;
18200;SDS011;9226;47.858;9.594;2023-06-14T04:09:07;8.67;;;4.60;;
18200;SDS011;9226;47.858;9.594;2023-06-14T04:11:33;11.83;;;4.87;;
18200;SDS011;9226;47.858;9.594;2023-06-14T04:13:58;10.20;;;4.33;;
18200;SDS011;9226;47.858;9.594;2023-06-14T04:16:24;9.23;;;4.13;;
18200;SDS011;9226;47.858;9.594;2023-06-14T04:18:49;14.03;;;5.23;;
18200;SDS011;9226;47.858;9.594;2023-06-14T04:21:17;11.97;;;4.40;;
18200;SDS011;9226;47.858;9.594;2023-06-14T04:23:42;11.57;;;4.80;;
18200;SDS011;9226;47.858;9.594;2023-06-14T04:26:08;15.27;;;4.50;;
18200;SDS011;9226;47.858;9.594;2023-06-14T04:28:35;16.97;;;5.00;;
18200;SDS011;9226;47.858;9.594;2023-06-14T04:31:05;16.03;;;4.57;;
18200;SDS011;9226;47.858;9.594;2023-06-14T04:33:34;15.70;;;5.20;;
18200;SDS011;9226;47.858;9.594;2023-06-14T04:36:08;14.30;;;4.97;;
18200;SDS011;9226;47.858;9.594;2023-06-14T04:38:42;14.20;;;5.00;;
18200;SDS011;9226;47.858;9.594;2023-06-14T04:41:10;13.10;;;5.00;;
18200;SDS011;9226;47.858;9.594;2023-06-14T04:43:36;11.80;;;4.93;;
18200;SDS011;9226;47.858;9.594;2023-06-14T04:46:03;18.80;;;4.90;;
18200;SDS011;9226;47.858;9.594;2023-06-14T04:48:39;16.43;;;5.10;;
18200;SDS011;9226;47.858;9.594;2023-06-14T04:51:08;8.40;;;4.80;;
18200;SDS011;9226;47.858;9.594;2023-06-14T04:53:34;14.07;;;5.03;;
18200;SDS011;9226;47.858;9.594;2023-06-14T04:56:01;10.80;;;4.53;;
18200;SDS011;9226;47.858;9.594;2023-06-14T04:58:29;14.23;;;4.97;;
18200;SDS011;9226;47.858;9.594;2023-06-14T05:00:55;18.23;;;5.07;;
18200;SDS011;9226;47.858;9.594;2023-06-14T05:03:24;13.03;;;4.50;;
18200;SDS011;9226;47.858;9.594;2023-06-14T05:05:50;16.83;;;4.90;;
18200;SDS011;9226;47.858;9.594;2023-06-14T05:08:18;10.50;;;4.63;;
18200;SDS011;9226;47.858;9.594;2023-06-14T05:10:43;11.67;;;4.53;;
18200;SDS011;9226;47.858;9.594;2023-06-14T05:13:09;10.67;;;4.17;;
18200;SDS011;9226;47.858;9.594;2023-06-14T05:15:35;7.33;;;4.10;;
18200;SDS011;9226;47.858;9.594;2023-06-14T05:18:01;13.97;;;5.00;;
18200;SDS011;9226;47.858;9.594;2023-06-14T05:20:27;16.47;;;4.50;;
18200;SDS011;9226;47.858;9.594;2023-06-14T05:22:53;8.03;;;4.60;;
18200;SDS011;9226;47.858;9.594;2023-06-14T05:25:19;8.03;;;4.33;;
18200;SDS011;9226;47.858;9.594;2023-06-14T05:27:45;10.77;;;4.23;;
18200;SDS011;9226;47.858;9.594;2023-06-14T05:30:11;11.00;;;4.77;;
18200;SDS011;9226;47.858;9.594;2023-06-14T05:32:37;13.57;;;4.47;;
18200;SDS011;9226;47.858;9.594;2023-06-14T05:35:03;9.57;;;4.83;;
18200;SDS011;9226;47.858;9.594;2023-06-14T05:37:29;11.37;;;4.30;;
18200;SDS011;9226;47.858;9.594;2023-06-14T05:39:55;9.23;;;4.53;;
18200;SDS011;9226;47.858;9.594;2023-06-14T05:42:21;10.73;;;4.57;;
18200;SDS011;9226;47.858;9.594;2023-06-14T05:44:46;9.97;;;4.43;;
18200;SDS011;9226;47.858;9.594;2023-06-14T05:47:12;8.63;;;4.60;;
18200;SDS011;9226;47.858;9.594;2023-06-14T05:49:37;7.97;;;4.80;;
18200;SDS011;9226;47.858;9.594;2023-06-14T05:52:02;7.07;;;4.70;;
18200;SDS011;9226;47.858;9.594;2023-06-14T05:54:28;10.90;;;4.63;;
18200;SDS011;9226;47.858;9.594;2023-06-14T05:56:53;8.60;;;4.75;;
18200;SDS011;9226;47.858;9.594;2023-06-14T05:59:19;7.50;;;4.40;;
18200;SDS011;9226;47.858;9.594;2023-06-14T06:01:45;10.57;;;4.57;;
18200;SDS011;9226;47.858;9.594;2023-06-14T06:04:11;9.38;;;4.28;;
18200;SDS011;9226;47.858;9.594;2023-06-14T06:06:36;8.23;;;4.47;;
18200;SDS011;9226;47.858;9.594;2023-06-14T06:09:02;16.73;;;4.80;;
18200;SDS011;9226;47.858;9.594;2023-06-14T06:11:27;6.30;;;4.10;;
18200;SDS011;9226;47.858;9.594;2023-06-14T06:13:53;6.90;;;4.13;;
18200;SDS011;9226;47.858;9.594;2023-06-14T06:16:18;10.40;;;4.43;;
18200;SDS011;9226;47.858;9.594;2023-06-14T06:18:44;14.18;;;4.90;;
18200;SDS011;9226;47.858;9.594;2023-06-14T06:21:09;7.05;;;4.30;;
18200;SDS011;9226;47.858;9.594;2023-06-14T06:23:34;16.55;;;5.30;;
18200;SDS011;9226;47.858;9.594;2023-06-14T06:26:00;11.27;;;4.22;;
18200;SDS011;9226;47.858;9.594;2023-06-14T06:28:26;15.07;;;4.88;;
18200;SDS011;9226;47.858;9.594;2023-06-14T06:30:51;11.75;;;5.10;;
18200;SDS011;9226;47.858;9.594;2023-06-14T06:33:17;11.57;;;4.50;;
18200;SDS011;9226;47.858;9.594;2023-06-14T06:35:42;11.73;;;4.25;;
18200;SDS011;9226;47.858;9.594;2023-06-14T06:38:07;14.00;;;3.88;;
18200;SDS011;9226;47.858;9.594;2023-06-14T06:40:35;8.48;;;4.55;;
18200;SDS011;9226;47.858;9.594;2023-06-14T06:43:01;18.08;;;5.10;;
18200;SDS011;9226;47.858;9.594;2023-06-14T06:45:27;12.95;;;4.60;;
18200;SDS011;9226;47.858;9.594;2023-06-14T06:47:53;19.95;;;5.20;;
18200;SDS011;9226;47.858;9.594;2023-06-14T06:50:18;10.32;;;4.50;;
18200;SDS011;9226;47.858;9.594;2023-06-14T06:52:44;14.98;;;4.88;;
18200;SDS011;9226;47.858;9.594;2023-06-14T06:55:10;10.20;;;4.30;;
18200;SDS011;9226;47.858;9.594;2023-06-14T06:57:36;7.28;;;4.75;;
18200;SDS011;9226;47.858;9.594;2023-06-14T07:00:01;8.55;;;4.28;;
18200;SDS011;9226;47.858;9.594;2023-06-14T07:02:29;10.48;;;4.15;;
18200;SDS011;9226;47.858;9.594;2023-06-14T07:04:55;7.82;;;4.03;;
18200;SDS011;9226;47.858;9.594;2023-06-14T07:07:21;10.65;;;4.47;;
18200;SDS011;9226;47.858;9.594;2023-06-14T07:09:47;10.35;;;4.70;;
18200;SDS011;9226;47.858;9.594;2023-06-14T07:12:12;14.32;;;4.72;;
18200;SDS011;9226;47.858;9.594;2023-06-14T07:14:38;10.85;;;4.18;;
18200;SDS011;9226;47.858;9.594;2023-06-14T07:17:03;6.45;;;4.10;;
18200;SDS011;9226;47.858;9.594;2023-06-14T07:19:29;9.30;;;4.13;;
18200;SDS011;9226;47.858;9.594;2023-06-14T07:21:55;9.35;;;4.45;;
18200;SDS011;9226;47.858;9.594;2023-06-14T07:24:21;7.55;;;4.15;;
18200;SDS011;9226;47.858;9.594;2023-06-14T07:26:46;13.80;;;4.88;;
18200;SDS011;9226;47.858;9.594;2023-06-14T07:29:13;3.85;;;3.13;;
18200;SDS011;9226;47.858;9.594;2023-06-14T07:31:38;8.50;;;4.03;;
18200;SDS011;9226;47.858;9.594;2023-06-14T07:34:03;9.02;;;4.10;;
18200;SDS011;9226;47.858;9.594;2023-06-14T07:36:29;5.40;;;3.50;;
18200;SDS011;9226;47.858;9.594;2023-06-14T07:38:54;6.75;;;3.60;;
18200;SDS011;9226;47.858;9.594;2023-06-14T07:41:20;5.43;;;3.40;;
18200;SDS011;9226;47.858;9.594;2023-06-14T07:43:45;6.03;;;3.50;;
18200;SDS011;9226;47.858;9.594;2023-06-14T07:46:11;8.00;;;4.10;;
18200;SDS011;9226;47.858;9.594;2023-06-14T07:48:36;8.13;;;4.13;;
18200;SDS011;9226;47.858;9.594;2023-06-14T07:51:02;7.38;;;3.47;;
18200;SDS011;9226;47.858;9.594;2023-06-14T07:53:27;10.30;;;3.90;;
18200;SDS011;9226;47.858;9.594;2023-06-14T07:55:52;5.47;;;3.72;;
18200;SDS011;9226;47.858;9.594;2023-06-14T07:58:18;4.75;;;3.50;;
18200;SDS011;9226;47.858;9.594;2023-06-14T08:00:43;10.73;;;4.47;;
18200;SDS011;9226;47.858;9.594;2023-06-14T08:03:09;5.55;;;3.25;;
18200;SDS011;9226;47.858;9.594;2023-06-14T08:05:34;5.50;;;3.47;;
18200;SDS011;9226;47.858;9.594;2023-06-14T08:08:00;4.75;;;3.03;;
18200;SDS011;9226;47.858;9.594;2023-06-14T08:10:25;4.68;;;3.28;;
18200;SDS011;9226;47.858;9.594;2023-06-14T08:12:51;7.20;;;3.88;;
18200;SDS011;9226;47.858;9.594;2023-06-14T08:15:17;5.22;;;3.30;;
18200;SDS011;9226;47.858;9.594;2023-06-14T08:17:43;6.35;;;3.25;;
18200;SDS011;9226;47.858;9.594;2023-06-14T08:20:09;3.90;;;3.50;;
18200;SDS011;9226;47.858;9.594;2023-06-14T08:22:36;3.70;;;3.25;;
18200;SDS011;9226;47.858;9.594;2023-06-14T08:25:02;6.80;;;3.25;;
18200;SDS011;9226;47.858;9.594;2023-06-14T08:27:29;5.28;;;3.47;;
18200;SDS011;9226;47.858;9.594;2023-06-14T08:29:55;9.57;;;3.47;;
18200;SDS011;9226;47.858;9.594;2023-06-14T08:32:21;6.78;;;3.25;;
18200;SDS011;9226;47.858;9.594;2023-06-14T08:34:47;6.30;;;3.47;;
18200;SDS011;9226;47.858;9.594;2023-06-14T08:37:12;6.88;;;3.97;;
18200;SDS011;9226;47.858;9.594;2023-06-14T08:39:37;4.22;;;3.47;;
18200;SDS011;9226;47.858;9.594;2023-06-14T08:42:03;6.82;;;3.35;;
18200;SDS011;9226;47.858;9.594;2023-06-14T08:44:31;4.25;;;3.33;;
18200;SDS011;9226;47.858;9.594;2023-06-14T08:46:57;5.65;;;3.50;;
18200;SDS011;9226;47.858;9.594;2023-06-14T08:49:24;5.38;;;2.95;;
18200;SDS011;9226;47.858;9.594;2023-06-14T08:51:52;6.40;;;3.20;;
18200;SDS011;9226;47.858;9.594;2023-06-14T08:54:22;10.13;;;2.92;;
18200;SDS011;9226;47.858;9.594;2023-06-14T08:56:49;11.15;;;3.40;;
18200;SDS011;9226;47.858;9.594;2023-06-14T08:59:16;5.60;;;3.35;;
18200;SDS011;9226;47.858;9.594;2023-06-14T09:01:43;6.65;;;3.20;;
18200;SDS011;9226;47.858;9.594;2023-06-14T09:04:10;5.88;;;3.10;;
18200;SDS011;9226;47.858;9.594;2023-06-14T09:06:36;12.98;;;3.67;;
18200;SDS011;9226;47.858;9.594;2023-06-14T09:09:02;4.68;;;3.60;;
18200;SDS011;9226;47.858;9.594;2023-06-14T09:11:29;4.82;;;2.97;;
18200;SDS011;9226;47.858;9.594;2023-06-14T09:13:55;9.70;;;3.58;;
18200;SDS011;9226;47.858;9.594;2023-06-14T09:16:21;3.92;;;3.22;;
18200;SDS011;9226;47.858;9.594;2023-06-14T09:18:46;6.22;;;3.38;;
18200;SDS011;9226;47.858;9.594;2023-06-14T09:21:13;4.03;;;2.83;;
18200;SDS011;9226;47.858;9.594;2023-06-14T09:23:41;7.28;;;3.00;;
18200;SDS011;9226;47.858;9.594;2023-06-14T09:26:08;3.75;;;2.92;;
18200;SDS011;9226;47.858;9.594;2023-06-14T09:28:35;4.00;;;2.95;;
18200;SDS011;9226;47.858;9.594;2023-06-14T09:31:01;5.75;;;3.55;;
18200;SDS011;9226;47.858;9.594;2023-06-14T09:33:27;6.97;;;3.40;;
18200;SDS011;9226;47.858;9.594;2023-06-14T09:35:53;5.43;;;3.83;;
18200;SDS011;9226;47.858;9.594;2023-06-14T09:38:19;6.85;;;3.22;;
18200;SDS011;9226;47.858;9.594;2023-06-14T09:40:45;8.93;;;3.30;;
18200;SDS011;9226;47.858;9.594;2023-06-14T09:43:11;5.68;;;3.38;;
18200;SDS011;9226;47.858;9.594;2023-06-14T09:45:36;4.38;;;3.00;;
18200;SDS011;9226;47.858;9.594;2023-06-14T09:48:05;8.13;;;3.22;;
18200;SDS011;9226;47.858;9.594;2023-06-14T09:50:32;6.60;;;3.20;;
18200;SDS011;9226;47.858;9.594;2023-06-14T09:52:59;10.07;;;3.50;;
18200;SDS011;9226;47.858;9.594;2023-06-14T09:55:30;4.10;;;3.00;;
18200;SDS011;9226;47.858;9.594;2023-06-14T09:57:59;4.47;;;3.17;;
18200;SDS011;9226;47.858;9.594;2023-06-14T10:00:29;4.20;;;3.15;;
18200;SDS011;9226;47.858;9.594;2023-06-14T10:02:59;6.63;;;3.38;;
18200;SDS011;9226;47.858;9.594;2023-06-14T10:05:28;7.45;;;3.55;;
18200;SDS011;9226;47.858;9.594;2023-06-14T10:08:04;8.40;;;3.50;;
18200;SDS011;9226;47.858;9.594;2023-06-14T10:10:33;5.90;;;3.80;;
18200;SDS011;9226;47.858;9.594;2023-06-14T10:12:58;8.57;;;4.03;;
18200;SDS011;9226;47.858;9.594;2023-06-14T10:17:54;7.25;;;3.50;;
18200;SDS011;9226;47.858;9.594;2023-06-14T10:20:30;10.63;;;4.10;;
18200;SDS011;9226;47.858;9.594;2023-06-14T10:23:11;10.70;;;4.18;;
18200;SDS011;9226;47.858;9.594;2023-06-14T10:25:41;5.50;;;3.03;;
18200;SDS011;9226;47.858;9.594;2023-06-14T10:33:48;5.70;;;3.80;;
18200;SDS011;9226;47.858;9.594;2023-06-14T10:38:46;4.75;;;3.70;;
18200;SDS011;9226;47.858;9.594;2023-06-14T10:41:22;4.70;;;3.38;;
18200;SDS011;9226;47.858;9.594;2023-06-14T10:43:48;5.55;;;3.28;;
18200;SDS011;9226;47.858;9.594;2023-06-14T10:46:17;5.15;;;3.53;;
18200;SDS011;9226;47.858;9.594;2023-06-14T10:48:46;6.15;;;3.47;;
18200;SDS011;9226;47.858;9.594;2023-06-14T10:51:18;4.90;;;3.50;;
18200;SDS011;9226;47.858;9.594;2023-06-14T10:53:46;8.38;;;4.40;;
18200;SDS011;9226;47.858;9.594;2023-06-14T10:59:16;7.22;;;3.75;;
18200;SDS011;9226;47.858;9.594;2023-06-14T11:01:57;6.50;;;3.33;;
18200;SDS011;9226;47.858;9.594;2023-06-14T11:04:46;6.07;;;3.40;;
18200;SDS011;9226;47.858;9.594;2023-06-14T11:07:24;4.78;;;3.40;;
18200;SDS011;9226;47.858;9.594;2023-06-14T11:12:47;7.60;;;3.85;;
18200;SDS011;9226;47.858;9.594;2023-06-14T11:15:13;4.72;;;3.80;;
18200;SDS011;9226;47.858;9.594;2023-06-14T11:17:39;4.13;;;3.25;;
18200;SDS011;9226;47.858;9.594;2023-06-14T11:20:11;5.85;;;3.45;;
18200;SDS011;9226;47.858;9.594;2023-06-14T11:22:43;5.18;;;3.45;;
18200;SDS011;9226;47.858;9.594;2023-06-14T11:25:10;6.85;;;3.20;;
18200;SDS011;9226;47.858;9.594;2023-06-14T11:27:37;6.72;;;3.30;;
18200;SDS011;9226;47.858;9.594;2023-06-14T11:30:02;8.45;;;3.72;;
18200;SDS011;9226;47.858;9.594;2023-06-14T11:32:28;9.07;;;3.72;;
18200;SDS011;9226;47.858;9.594;2023-06-14T11:34:56;6.88;;;3.80;;
18200;SDS011;9226;47.858;9.594;2023-06-14T11:37:23;6.30;;;3.50;;
18200;SDS011;9226;47.858;9.594;2023-06-14T11:39:51;10.82;;;3.47;;
18200;SDS011;9226;47.858;9.594;2023-06-14T11:42:16;5.95;;;3.47;;
18200;SDS011;9226;47.858;9.594;2023-06-14T11:44:42;4.55;;;3.40;;
18200;SDS011;9226;47.858;9.594;2023-06-14T11:47:11;6.30;;;3.65;;
18200;SDS011;9226;47.858;9.594;2023-06-14T11:49:37;4.68;;;3.20;;
18200;SDS011;9226;47.858;9.594;2023-06-14T11:52:03;5.65;;;3.50;;
18200;SDS011;9226;47.858;9.594;2023-06-14T11:54:29;6.10;;;3.47;;
18200;SDS011;9226;47.858;9.594;2023-06-14T11:56:54;8.18;;;3.53;;
18200;SDS011;9226;47.858;9.594;2023-06-14T11:59:20;6.78;;;3.20;;
18200;SDS011;9226;47.858;9.594;2023-06-14T12:01:47;8.30;;;3.58;;
18200;SDS011;9226;47.858;9.594;2023-06-14T12:04:13;5.45;;;3.53;;
18200;SDS011;9226;47.858;9.594;2023-06-14T12:06:38;6.88;;;3.30;;
18200;SDS011;9226;47.858;9.594;2023-06-14T12:09:05;4.97;;;3.25;;
18200;SDS011;9226;47.858;9.594;2023-06-14T12:11:41;4.13;;;2.97;;
18200;SDS011;9226;47.858;9.594;2023-06-14T12:14:08;4.95;;;3.13;;
18200;SDS011;9226;47.858;9.594;2023-06-14T12:16:35;4.70;;;3.50;;
18200;SDS011;9226;47.858;9.594;2023-06-14T12:19:12;4.47;;;3.35;;
18200;SDS011;9226;47.858;9.594;2023-06-14T12:21:39;4.72;;;3.40;;
18200;SDS011;9226;47.858;9.594;2023-06-14T12:24:06;4.90;;;3.35;;
18200;SDS011;9226;47.858;9.594;2023-06-14T12:26:32;7.10;;;3.97;;
18200;SDS011;9226;47.858;9.594;2023-06-14T12:28:58;7.18;;;3.35;;
18200;SDS011;9226;47.858;9.594;2023-06-14T12:31:23;9.77;;;3.83;;
18200;SDS011;9226;47.858;9.594;2023-06-14T12:33:49;3.95;;;3.10;;
18200;SDS011;9226;47.858;9.594;2023-06-14T12:36:15;3.72;;;3.13;;
18200;SDS011;9226;47.858;9.594;2023-06-14T12:38:41;5.28;;;3.38;;
18200;SDS011;9226;47.858;9.594;2023-06-14T12:41:07;3.63;;;2.88;;
18200;SDS011;9226;47.858;9.594;2023-06-14T12:43:32;7.23;;;3.30;;
18200;SDS011;9226;47.858;9.594;2023-06-14T12:45:58;5.57;;;3.33;;
18200;SDS011;9226;47.858;9.594;2023-06-14T12:48:24;6.80;;;3.58;;
18200;SDS011;9226;47.858;9.594;2023-06-14T12:50:52;6.57;;;3.53;;
18200;SDS011;9226;47.858;9.594;2023-06-14T12:53:17;9.47;;;3.30;;
18200;SDS011;9226;47.858;9.594;2023-06-14T12:55:42;6.10;;;3.30;;
18200;SDS011;9226;47.858;9.594;2023-06-14T12:58:08;6.57;;;3.38;;
18200;SDS011;9226;47.858;9.594;2023-06-14T13:00:33;5.20;;;3.53;;
18200;SDS011;9226;47.858;9.594;2023-06-14T13:02:58;4.60;;;3.60;;
18200;SDS011;9226;47.858;9.594;2023-06-14T13:05:24;5.63;;;3.70;;
18200;SDS011;9226;47.858;9.594;2023-06-14T13:07:50;6.25;;;3.60;;
18200;SDS011;9226;47.858;9.594;2023-06-14T13:10:16;5.05;;;3.40;;
18200;SDS011;9226;47.858;9.594;2023-06-14T13:12:42;6.60;;;3.60;;
18200;SDS011;9226;47.858;9.594;2023-06-14T13:15:07;4.22;;;3.10;;
18200;SDS011;9226;47.858;9.594;2023-06-14T13:17:33;6.47;;;3.42;;
18200;SDS011;9226;47.858;9.594;2023-06-14T13:20:03;5.55;;;3.72;;
18200;SDS011;9226;47.858;9.594;2023-06-14T13:22:30;5.72;;;4.00;;
18200;SDS011;9226;47.858;9.594;2023-06-14T13:24:55;7.03;;;3.70;;
18200;SDS011;9226;47.858;9.594;2023-06-14T13:27:21;6.95;;;3.35;;
18200;SDS011;9226;47.858;9.594;2023-06-14T13:29:46;7.00;;;3.78;;
18200;SDS011;9226;47.858;9.594;2023-06-14T13:32:11;5.05;;;3.55;;
18200;SDS011;9226;47.858;9.594;2023-06-14T13:34:37;4.97;;;3.35;;
18200;SDS011;9226;47.858;9.594;2023-06-14T13:37:02;5.70;;;3.72;;
18200;SDS011;9226;47.858;9.594;2023-06-14T13:39:28;11.15;;;3.58;;
18200;SDS011;9226;47.858;9.594;2023-06-14T13:41:53;8.20;;;3.63;;
18200;SDS011;9226;47.858;9.594;2023-06-14T13:44:18;6.18;;;3.40;;
18200;SDS011;9226;47.858;9.594;2023-06-14T13:46:46;6.07;;;3.73;;
18200;SDS011;9226;47.858;9.594;2023-06-14T13:49:11;7.73;;;3.60;;
18200;SDS011;9226;47.858;9.594;2023-06-14T13:51:37;5.13;;;3.60;;
18200;SDS011;9226;47.858;9.594;2023-06-14T13:54:03;7.00;;;3.63;;
18200;SDS011;9226;47.858;9.594;2023-06-14T13:56:29;5.83;;;4.07;;
18200;SDS011;9226;47.858;9.594;2023-06-14T13:58:55;5.47;;;3.47;;
18200;SDS011;9226;47.858;9.594;2023-06-14T14:01:21;8.80;;;3.87;;
18200;SDS011;9226;47.858;9.594;2023-06-14T14:03:47;10.63;;;3.77;;
18200;SDS011;9226;47.858;9.594;2023-06-14T14:06:14;5.43;;;3.58;;
18200;SDS011;9226;47.858;9.594;2023-06-14T14:08:40;4.67;;;3.60;;
18200;SDS011;9226;47.858;9.594;2023-06-14T14:11:06;8.83;;;3.63;;
18200;SDS011;9226;47.858;9.594;2023-06-14T14:13:32;6.50;;;3.67;;
18200;SDS011;9226;47.858;9.594;2023-06-14T14:15:58;5.90;;;3.33;;
18200;SDS011;9226;47.858;9.594;2023-06-14T14:18:24;10.57;;;3.80;;
18200;SDS011;9226;47.858;9.594;2023-06-14T14:20:50;8.30;;;3.75;;
18200;SDS011;9226;47.858;9.594;2023-06-14T14:23:15;7.93;;;3.77;;
18200;SDS011;9226;47.858;9.594;2023-06-14T14:25:41;4.37;;;3.00;;
18200;SDS011;9226;47.858;9.594;2023-06-14T14:28:07;5.72;;;3.60;;
18200;SDS011;9226;47.858;9.594;2023-06-14T14:30:32;5.87;;;3.30;;
18200;SDS011;9226;47.858;9.594;2023-06-14T14:32:58;5.30;;;4.00;;
18200;SDS011;9226;47.858;9.594;2023-06-14T14:35:24;7.33;;;4.07;;
18200;SDS011;9226;47.858;9.594;2023-06-14T14:37:51;4.20;;;3.20;;
18200;SDS011;9226;47.858;9.594;2023-06-14T14:40:16;6.00;;;3.47;;
18200;SDS011;9226;47.858;9.594;2023-06-14T14:42:42;4.37;;;3.37;;
18200;SDS011;9226;47.858;9.594;2023-06-14T14:45:07;7.47;;;3.83;;
18200;SDS011;9226;47.858;9.594;2023-06-14T14:47:33;6.40;;;3.60;;
18200;SDS011;9226;47.858;9.594;2023-06-14T14:49:58;5.25;;;3.25;;
18200;SDS011;9226;47.858;9.594;2023-06-14T14:52:24;7.03;;;3.65;;
18200;SDS011;9226;47.858;9.594;2023-06-14T14:54:51;7.90;;;3.55;;
18200;SDS011;9226;47.858;9.594;2023-06-14T14:57:18;5.27;;;3.53;;
18200;SDS011;9226;47.858;9.594;2023-06-14T14:59:43;5.50;;;3.80;;
18200;SDS011;9226;47.858;9.594;2023-06-14T15:02:09;4.40;;;3.50;;
18200;SDS011;9226;47.858;9.594;2023-06-14T15:04:35;7.07;;;3.50;;
18200;SDS011;9226;47.858;9.594;2023-06-14T15:07:00;7.23;;;3.90;;
18200;SDS011;9226;47.858;9.594;2023-06-14T15:09:26;5.30;;;3.80;;
18200;SDS011;9226;47.858;9.594;2023-06-14T15:11:51;4.47;;;3.73;;
18200;SDS011;9226;47.858;9.594;2023-06-14T15:14:17;5.20;;;3.60;;
18200;SDS011;9226;47.858;9.594;2023-06-14T15:16:42;5.43;;;3.58;;
18200;SDS011;9226;47.858;9.594;2023-06-14T15:19:08;6.17;;;3.80;;